createdAt,value
2023-04-19T00:01:14.802Z,12.59
2023-04-19T00:03:43.591Z,12.58
2023-04-19T00:06:15.244Z,12.62
2023-04-19T00:08:43.536Z,12.65
2023-04-19T00:11:12.256Z,12.65
2023-04-19T00:13:41.586Z,12.63
2023-04-19T00:16:10.894Z,12.62
2023-04-19T00:18:40.928Z,12.62
2023-04-19T00:21:11.467Z,12.63
2023-04-19T00:23:42.575Z,12.65
2023-04-19T00:26:16.674Z,12.64
2023-04-19T00:28:47.280Z,12.62
2023-04-19T00:31:18.622Z,12.60
2023-04-19T00:33:48.395Z,12.57
2023-04-19T00:36:33.811Z,12.54
2023-04-19T00:39:19.558Z,12.48
2023-04-19T00:41:48.680Z,12.42
2023-04-19T00:44:24.004Z,12.37
2023-04-19T00:47:15.579Z,12.38
2023-04-19T00:49:47.233Z,12.42
2023-04-19T00:52:20.323Z,12.44
2023-04-19T00:55:08.807Z,12.45
2023-04-19T00:57:54.097Z,12.45
2023-04-19T01:00:27.450Z,12.42
2023-04-19T01:03:27.257Z,12.40
2023-04-19T01:06:07.635Z,12.42
2023-04-19T01:09:12.959Z,12.44
2023-04-19T01:12:05.923Z,12.44
2023-04-19T01:15:35.683Z,12.46
2023-04-19T01:18:08.033Z,12.48
2023-04-19T01:20:37.759Z,12.49
2023-04-19T01:23:14.927Z,12.49
2023-04-19T01:25:47.422Z,12.50
2023-04-19T01:28:28.193Z,12.50
2023-04-19T01:31:09.177Z,12.48
2023-04-19T01:33:46.026Z,12.45
2023-04-19T01:36:20.188Z,12.45
2023-04-19T01:39:19.521Z,12.45
2023-04-19T01:41:48.578Z,12.45
2023-04-19T01:44:18.603Z,12.42
2023-04-19T01:46:52.439Z,12.38
2023-04-19T01:49:33.436Z,12.37
2023-04-19T01:52:07.242Z,12.37
2023-04-19T01:54:40.588Z,12.38
2023-04-19T01:57:18.253Z,12.38
2023-04-19T01:59:53.044Z,12.37
2023-04-19T02:02:31.428Z,12.36
2023-04-19T02:05:01.682Z,12.37
2023-04-19T02:07:37.691Z,12.35
2023-04-19T02:10:42.838Z,12.33
2023-04-19T02:13:23.142Z,12.32
2023-04-19T02:16:36.229Z,12.29
2023-04-19T02:19:06.849Z,12.28
2023-04-19T02:21:35.746Z,12.26
2023-04-19T02:24:06.171Z,12.25
2023-04-19T02:26:35.218Z,12.24
2023-04-19T02:29:06.360Z,12.24
2023-04-19T02:31:39.251Z,12.25
2023-04-19T02:34:48.979Z,12.26
2023-04-19T02:37:29.496Z,12.25
2023-04-19T02:40:01.527Z,12.25
2023-04-19T02:42:30.086Z,12.25
2023-04-19T02:45:09.646Z,12.29
2023-04-19T02:48:05.952Z,12.33
2023-04-19T02:50:54.833Z,12.35
2023-04-19T02:53:28.534Z,12.38
2023-04-19T02:56:03.871Z,12.36
2023-04-19T02:58:36.762Z,12.35
2023-04-19T03:01:13.150Z,12.33
2023-04-19T03:03:41.569Z,12.30
2023-04-19T03:06:18.902Z,12.29
2023-04-19T03:08:50.339Z,12.30
2023-04-19T03:11:28.161Z,12.30
2023-04-19T03:13:57.755Z,12.29
2023-04-19T03:16:31.650Z,12.30
2023-04-19T03:19:18.601Z,12.27
2023-04-19T03:21:49.500Z,12.25
2023-04-19T03:24:26.760Z,12.24
2023-04-19T03:27:17.357Z,12.25
2023-04-19T03:29:53.749Z,12.26
2023-04-19T03:32:37.641Z,12.28
2023-04-19T03:35:43.053Z,12.28
2023-04-19T03:38:12.378Z,12.28
2023-04-19T03:40:40.509Z,12.27
2023-04-19T03:43:09.942Z,12.28
2023-04-19T03:45:39.964Z,12.31
2023-04-19T03:48:09.591Z,12.34
2023-04-19T03:50:39.710Z,12.36
2023-04-19T03:53:11.309Z,12.38
2023-04-19T03:55:41.778Z,12.39
2023-04-19T03:58:11.972Z,12.41
2023-04-19T04:00:40.220Z,12.46
2023-04-19T04:03:08.667Z,12.63
2023-04-19T04:05:36.981Z,12.72
2023-04-19T04:08:05.954Z,12.81
2023-04-19T04:10:34.161Z,12.88
2023-04-19T04:13:02.379Z,12.81
2023-04-19T04:15:30.681Z,12.83
2023-04-19T04:17:59.221Z,12.98
2023-04-19T04:20:27.706Z,13.12
2023-04-19T04:22:55.937Z,13.21
2023-04-19T04:25:25.345Z,13.27
2023-04-19T04:27:54.305Z,13.35
2023-04-19T04:30:22.323Z,13.49
2023-04-19T04:32:51.823Z,13.57
2023-04-19T04:35:21.231Z,13.63
2023-04-19T04:37:50.826Z,13.61
2023-04-19T04:40:20.869Z,13.56
2023-04-19T04:42:49.075Z,13.58
2023-04-19T04:45:18.468Z,13.72
2023-04-19T04:47:47.952Z,13.85
2023-04-19T04:50:17.754Z,13.89
2023-04-19T04:52:46.049Z,13.87
2023-04-19T04:55:14.424Z,13.91
2023-04-19T04:57:42.669Z,13.96
2023-04-19T05:00:12.912Z,13.94
2023-04-19T05:02:41.561Z,13.92
2023-04-19T05:05:11.523Z,13.90
2023-04-19T05:07:41.268Z,13.82
2023-04-19T05:10:12.492Z,13.67
2023-04-19T05:12:41.853Z,13.39
2023-04-19T05:15:11.381Z,13.10
2023-04-19T05:17:39.568Z,12.89
2023-04-19T05:20:09.348Z,12.71
2023-04-19T05:22:38.519Z,12.57
2023-04-19T05:25:09.399Z,12.38
2023-04-19T05:27:38.162Z,12.17
2023-04-19T05:30:08.088Z,11.97
2023-04-19T05:32:38.259Z,11.82
2023-04-19T05:35:08.506Z,11.69
2023-04-19T05:37:37.115Z,11.62
2023-04-19T05:40:09.488Z,11.65
2023-04-19T05:42:38.447Z,11.61
2023-04-19T05:45:08.752Z,11.53
2023-04-19T05:47:38.583Z,11.47
2023-04-19T05:50:09.662Z,11.45
2023-04-19T05:52:38.013Z,11.43
2023-04-19T05:55:06.907Z,11.44
2023-04-19T05:57:36.338Z,11.43
2023-04-19T06:00:05.290Z,11.46
2023-04-19T06:02:33.970Z,11.45
2023-04-19T06:05:09.868Z,11.41
2023-04-19T06:07:43.077Z,11.43
2023-04-19T06:10:15.488Z,11.50
2023-04-19T06:12:44.200Z,11.49
2023-04-19T06:15:12.552Z,11.45
2023-04-19T06:17:41.876Z,11.43
2023-04-19T06:20:11.929Z,11.49
2023-04-19T06:22:45.070Z,11.56
2023-04-19T06:25:15.178Z,11.65
2023-04-19T06:27:43.502Z,11.65
2023-04-19T06:30:12.967Z,11.63
2023-04-19T06:32:41.593Z,11.63
2023-04-19T06:35:11.966Z,11.71
2023-04-19T06:37:40.003Z,11.74
2023-04-19T06:40:09.607Z,11.76
2023-04-19T06:42:38.038Z,11.82
2023-04-19T06:45:17.754Z,11.87
2023-04-19T06:47:46.616Z,11.90
2023-04-19T06:50:15.305Z,11.89
2023-04-19T06:52:43.920Z,11.87
2023-04-19T06:55:14.055Z,11.89
2023-04-19T06:57:44.689Z,11.89
2023-04-19T07:00:18.639Z,11.93
2023-04-19T07:02:48.430Z,11.97
2023-04-19T07:05:17.883Z,12.04
2023-04-19T07:07:46.889Z,12.15
2023-04-19T07:10:15.291Z,12.28
2023-04-19T07:12:43.592Z,12.36
2023-04-19T07:15:12.527Z,12.43
2023-04-19T07:17:41.314Z,12.46
2023-04-19T07:20:12.094Z,12.53
2023-04-19T07:22:42.170Z,12.62
2023-04-19T07:25:11.573Z,12.67
2023-04-19T07:27:40.074Z,12.72
2023-04-19T07:30:09.803Z,12.80
2023-04-19T07:32:38.121Z,12.90
2023-04-19T07:35:07.286Z,13.00
2023-04-19T07:37:35.748Z,13.07
2023-04-19T07:40:05.118Z,13.11
2023-04-19T07:42:34.046Z,13.09
2023-04-19T07:45:03.730Z,13.11
2023-04-19T07:47:32.878Z,13.21
2023-04-19T07:50:01.574Z,13.29
2023-04-19T07:52:30.493Z,13.34
2023-04-19T07:55:07.722Z,13.38
2023-04-19T07:57:48.761Z,13.44
2023-04-19T08:00:21.912Z,13.47
2023-04-19T08:02:53.320Z,13.53
2023-04-19T08:05:21.920Z,13.59
2023-04-19T08:10:05.505Z,13.58
2023-04-19T08:12:08.150Z,13.61
2023-04-19T08:14:28.346Z,13.57
2023-04-19T08:17:22.166Z,13.57
2023-04-19T08:19:49.212Z,13.65
2023-04-19T08:22:21.316Z,13.66
2023-04-19T08:24:52.511Z,13.56
2023-04-19T08:27:22.701Z,13.59
2023-04-19T08:29:51.090Z,13.66
2023-04-19T08:32:20.859Z,13.65
2023-04-19T08:34:50.098Z,13.62
2023-04-19T08:37:18.503Z,13.65
2023-04-19T08:39:47.303Z,13.67
2023-04-19T08:45:19.039Z,13.80
2023-04-19T08:47:56.376Z,13.87
2023-04-19T08:50:33.450Z,13.95
2023-04-19T08:53:21.009Z,14.01
2023-04-19T08:56:10.682Z,14.14
2023-04-19T08:58:57.745Z,14.24
2023-04-19T09:01:35.962Z,14.32
2023-04-19T09:04:34.832Z,14.43
2023-04-19T09:07:05.671Z,14.47
2023-04-19T09:09:45.646Z,14.55
2023-04-19T09:12:27.294Z,14.65
2023-04-19T09:15:01.679Z,14.69
2023-04-19T09:17:32.260Z,14.77
2023-04-19T09:20:00.982Z,14.90
2023-04-19T09:22:29.794Z,15.01
2023-04-19T09:27:36.880Z,14.86
2023-04-19T09:30:17.519Z,14.93
2023-04-19T09:32:54.595Z,15.07
2023-04-19T09:35:54.276Z,15.16
2023-04-19T09:38:24.099Z,15.18
2023-04-19T09:40:55.442Z,15.21
2023-04-19T09:43:53.104Z,15.22
2023-04-19T09:46:27.890Z,15.28
2023-04-19T09:49:00.255Z,15.27
2023-04-19T09:51:41.440Z,15.26
2023-04-19T09:54:24.211Z,15.28
2023-04-19T09:56:57.039Z,15.35
2023-04-19T09:59:26.941Z,15.40
2023-04-19T10:01:56.666Z,15.45
2023-04-19T10:04:44.152Z,15.51
2023-04-19T10:09:59.931Z,15.50
2023-04-19T10:15:10.233Z,15.52
2023-04-19T10:17:59.489Z,15.55
2023-04-19T10:20:30.746Z,15.57
2023-04-19T10:22:59.619Z,15.62
2023-04-19T10:25:30.107Z,15.68
2023-04-19T10:27:58.477Z,15.68
2023-04-19T10:30:27.105Z,15.65
2023-04-19T10:32:57.500Z,15.63
2023-04-19T10:35:28.982Z,15.57
2023-04-19T10:38:09.003Z,15.58
2023-04-19T10:41:00.959Z,15.69
2023-04-19T10:43:41.163Z,15.81
2023-04-19T10:46:14.135Z,15.91
2023-04-19T10:48:55.923Z,15.99
2023-04-19T10:51:28.879Z,15.97
2023-04-19T10:54:06.251Z,15.90
2023-04-19T10:57:04.628Z,15.81
2023-04-19T10:59:34.182Z,15.71
2023-04-19T11:02:03.572Z,15.72
2023-04-19T11:04:49.986Z,15.76
2023-04-19T11:07:20.758Z,15.75
2023-04-19T11:10:04.469Z,15.77
2023-04-19T11:12:37.035Z,15.79
2023-04-19T11:15:08.897Z,15.80
2023-04-19T11:17:41.180Z,15.79
2023-04-19T11:20:11.821Z,15.79
2023-04-19T11:22:43.562Z,15.81
2023-04-19T11:25:13.403Z,15.81
2023-04-19T11:27:45.002Z,15.82
2023-04-19T11:30:14.354Z,15.85
2023-04-19T11:32:58.187Z,15.85
2023-04-19T11:35:32.224Z,15.91
2023-04-19T11:38:01.694Z,15.94
2023-04-19T11:40:32.649Z,15.95
2023-04-19T11:43:03.648Z,15.97
2023-04-19T11:45:38.587Z,15.98
2023-04-19T11:48:20.726Z,15.99
2023-04-19T11:51:00.110Z,15.99
2023-04-19T11:53:32.153Z,15.99
2023-04-19T11:56:05.654Z,15.96
2023-04-19T11:58:37.090Z,15.94
2023-04-19T12:01:06.517Z,15.95
2023-04-19T12:03:56.228Z,15.98
2023-04-19T12:06:28.287Z,16.00
2023-04-19T12:09:09.004Z,16.04
2023-04-19T12:11:49.550Z,16.04
2023-04-19T12:14:19.684Z,16.10
2023-04-19T12:17:04.106Z,16.17
2023-04-19T12:19:45.417Z,16.28
2023-04-19T12:22:15.979Z,16.33
2023-04-19T12:24:45.648Z,16.39
2023-04-19T12:27:17.544Z,16.46
2023-04-19T12:29:48.358Z,16.52
2023-04-19T12:32:18.854Z,16.57
2023-04-19T12:34:48.600Z,16.65
2023-04-19T12:37:17.542Z,16.68
2023-04-19T12:39:46.268Z,16.69
2023-04-19T12:42:14.857Z,16.72
2023-04-19T12:44:45.178Z,16.73
2023-04-19T12:47:16.315Z,16.75
2023-04-19T12:49:45.691Z,16.73
2023-04-19T12:52:13.846Z,16.71
2023-04-19T12:54:45.728Z,16.70
2023-04-19T12:57:16.652Z,16.70
2023-04-19T13:00:04.788Z,16.64
2023-04-19T13:02:44.152Z,16.62
2023-04-19T13:05:15.874Z,16.64
2023-04-19T13:07:50.102Z,16.67
2023-04-19T13:10:21.284Z,16.69
2023-04-19T13:12:50.423Z,16.70
2023-04-19T13:15:20.088Z,16.74
2023-04-19T13:17:48.222Z,16.76
2023-04-19T13:20:18.656Z,16.75
2023-04-19T13:22:50.873Z,16.75
2023-04-19T13:25:20.380Z,16.75
2023-04-19T13:27:55.613Z,16.73
2023-04-19T13:30:26.353Z,16.73
2023-04-19T13:33:04.778Z,16.72
2023-04-19T13:35:41.169Z,16.77
2023-04-19T13:38:09.772Z,16.79
2023-04-19T13:40:40.018Z,16.74
2023-04-19T13:43:08.248Z,16.68
2023-04-19T13:45:37.092Z,16.62
2023-04-19T13:48:07.222Z,16.54
2023-04-19T13:50:44.771Z,16.45
2023-04-19T13:53:15.409Z,16.54
2023-04-19T13:55:43.886Z,16.66
2023-04-19T13:58:12.799Z,16.74
2023-04-19T14:00:43.055Z,16.76
2023-04-19T14:03:19.870Z,16.58
2023-04-19T14:05:52.383Z,16.33
2023-04-19T14:08:59.794Z,16.22
2023-04-19T14:11:44.317Z,16.14
2023-04-19T14:14:14.912Z,16.11
2023-04-19T14:16:52.122Z,16.06
2023-04-19T14:19:37.306Z,16.01
2023-04-19T14:22:16.500Z,15.98
2023-04-19T14:24:56.596Z,15.94
2023-04-19T14:27:26.778Z,15.89
2023-04-19T14:30:01.157Z,15.83
2023-04-19T14:32:51.395Z,15.78
2023-04-19T14:35:43.752Z,15.75
2023-04-19T14:38:12.456Z,15.75
2023-04-19T14:40:42.648Z,15.76
2023-04-19T14:43:28.635Z,15.74
2023-04-19T14:45:58.402Z,15.72
2023-04-19T14:48:28.169Z,15.71
2023-04-19T14:50:56.626Z,15.70
2023-04-19T14:53:25.820Z,15.67
2023-04-19T14:55:54.909Z,15.66
2023-04-19T14:58:24.321Z,15.64
2023-04-19T15:00:54.626Z,15.60
2023-04-19T15:03:22.841Z,15.54
2023-04-19T15:05:52.751Z,15.46
2023-04-19T15:08:30.112Z,15.38
2023-04-19T15:11:00.887Z,15.30
2023-04-19T15:13:29.848Z,15.28
2023-04-19T15:16:02.530Z,15.23
2023-04-19T15:18:32.581Z,15.20
2023-04-19T15:21:02.553Z,15.17
2023-04-19T15:23:30.837Z,15.17
2023-04-19T15:25:59.527Z,15.19
2023-04-19T15:28:29.526Z,15.19
2023-04-19T15:30:58.982Z,15.17
2023-04-19T15:33:35.882Z,15.15
2023-04-19T15:36:04.188Z,15.16
2023-04-19T15:38:32.584Z,15.16
2023-04-19T15:41:01.675Z,15.17
2023-04-19T15:43:31.177Z,15.17
2023-04-19T15:46:02.329Z,15.14
2023-04-19T15:48:31.228Z,15.09
2023-04-19T15:51:00.830Z,15.08
2023-04-19T15:53:29.326Z,15.06
2023-04-19T15:55:57.879Z,15.03
2023-04-19T15:58:26.399Z,15.00
2023-04-19T16:00:56.090Z,15.00
2023-04-19T16:03:29.208Z,14.99
2023-04-19T16:05:59.785Z,14.99
2023-04-19T16:08:30.533Z,14.96
2023-04-19T16:11:00.034Z,14.94
2023-04-19T16:13:30.112Z,14.91
2023-04-19T16:16:00.643Z,14.87
2023-04-19T16:18:28.887Z,14.82
2023-04-19T16:21:00.004Z,14.77
2023-04-19T16:23:30.670Z,14.74
2023-04-19T16:26:02.059Z,14.72
2023-04-19T16:28:34.754Z,14.70
2023-04-19T16:31:14.013Z,14.66
2023-04-19T16:33:42.573Z,14.62
2023-04-19T16:36:10.792Z,14.56
2023-04-19T16:38:38.996Z,14.57
2023-04-19T16:41:08.734Z,14.61
2023-04-19T16:43:37.048Z,14.64
2023-04-19T16:46:07.462Z,14.68
2023-04-19T16:48:35.832Z,14.71
2023-04-19T16:51:04.325Z,14.72
2023-04-19T16:53:33.161Z,14.73
2023-04-19T16:56:03.182Z,14.74
2023-04-19T16:58:32.605Z,14.73
2023-04-19T17:01:03.871Z,14.71
2023-04-19T17:03:32.442Z,14.73
2023-04-19T17:06:00.915Z,14.76
2023-04-19T17:08:29.337Z,14.81
2023-04-19T17:10:57.572Z,14.87
2023-04-19T17:13:26.471Z,14.92
2023-04-19T17:15:55.594Z,14.98
2023-04-19T17:18:24.909Z,15.01
2023-04-19T17:20:53.239Z,15.01
2023-04-19T17:23:27.340Z,15.00
2023-04-19T17:25:58.955Z,14.99
2023-04-19T17:28:27.775Z,15.00
2023-04-19T17:30:56.985Z,14.97
2023-04-19T17:33:26.096Z,14.92
2023-04-19T17:35:55.399Z,14.86
2023-04-19T17:38:26.163Z,14.81
2023-04-19T17:40:55.328Z,14.73
2023-04-19T17:43:26.752Z,14.62
2023-04-19T17:45:57.572Z,14.50
2023-04-19T17:48:26.633Z,14.38
2023-04-19T17:50:55.605Z,14.31
2023-04-19T17:53:26.876Z,14.25
2023-04-19T17:55:57.447Z,14.21
2023-04-19T17:58:26.248Z,14.17
2023-04-19T18:00:55.298Z,14.11
2023-04-19T18:03:25.450Z,14.06
2023-04-19T18:05:53.748Z,13.99
2023-04-19T18:08:23.556Z,13.93
2023-04-19T18:10:52.860Z,13.92
2023-04-19T18:13:21.974Z,13.98
2023-04-19T18:15:50.657Z,14.06
2023-04-19T18:18:19.396Z,14.14
2023-04-19T18:20:47.621Z,14.20
2023-04-19T18:23:16.014Z,14.17
2023-04-19T18:25:44.380Z,14.13
2023-04-19T18:28:12.744Z,14.06
2023-04-19T18:30:41.070Z,13.99
2023-04-19T18:33:09.421Z,13.89
2023-04-19T18:35:37.832Z,13.81
2023-04-19T18:38:07.127Z,13.80
2023-04-19T18:40:36.632Z,13.86
2023-04-19T18:43:08.639Z,13.91
2023-04-19T18:45:40.944Z,13.95
2023-04-19T18:48:11.230Z,13.97
2023-04-19T18:50:39.611Z,13.97
2023-04-19T18:53:20.281Z,13.94
2023-04-19T18:56:18.601Z,13.86
2023-04-19T18:58:48.961Z,13.82
2023-04-19T19:01:20.995Z,13.83
2023-04-19T19:04:10.648Z,13.88
2023-04-19T19:06:38.575Z,13.99
2023-04-19T19:09:11.011Z,14.08
2023-04-19T19:11:55.455Z,14.15
2023-04-19T19:14:25.874Z,14.21
2023-04-19T19:16:56.754Z,14.24
2023-04-19T19:19:26.888Z,14.28
2023-04-19T19:21:56.093Z,14.25
2023-04-19T19:24:25.493Z,14.24
2023-04-19T19:26:54.035Z,14.23
2023-04-19T19:29:24.769Z,14.22
2023-04-19T19:31:58.177Z,14.15
2023-04-19T19:34:30.479Z,14.12
2023-04-19T19:37:08.748Z,14.18
2023-04-19T19:39:39.305Z,14.27
2023-04-19T19:42:07.569Z,14.32
2023-04-19T19:44:35.965Z,14.41
2023-04-19T19:47:09.792Z,14.42
2023-04-19T19:52:11.681Z,14.42
2023-04-19T19:54:40.099Z,14.40
2023-04-19T19:58:06.864Z,14.37
2023-04-19T20:00:13.051Z,14.35
2023-04-19T20:05:19.850Z,14.31
2023-04-19T20:08:01.342Z,14.25
2023-04-19T20:10:31.597Z,14.26
2023-04-19T20:13:00.970Z,14.32
2023-04-19T20:15:29.693Z,14.40
2023-04-19T20:17:58.124Z,14.48
2023-04-19T20:20:27.343Z,14.56
2023-04-19T20:22:56.267Z,14.54
2023-04-19T20:25:25.621Z,14.49
2023-04-19T20:27:55.326Z,14.42
2023-04-19T20:30:23.766Z,14.33
2023-04-19T20:32:53.027Z,14.27
2023-04-19T20:35:21.861Z,14.21
2023-04-19T20:37:50.409Z,14.12
2023-04-19T20:40:18.672Z,14.00
2023-04-19T20:42:47.026Z,13.88
2023-04-19T20:45:16.555Z,13.79
2023-04-19T20:47:47.331Z,13.71
2023-04-19T20:50:15.611Z,13.69
2023-04-19T20:52:44.096Z,13.69
2023-04-19T20:55:13.064Z,13.71
2023-04-19T21:08:45.634Z,13.81
2023-04-19T21:11:13.925Z,13.86
2023-04-19T21:13:41.952Z,13.90
2023-04-19T21:16:11.349Z,13.90
2023-04-19T21:18:41.070Z,13.87
2023-04-19T21:21:09.417Z,13.81
2023-04-19T21:23:38.584Z,13.74
2023-04-19T21:26:07.753Z,13.68
2023-04-19T21:28:36.049Z,13.60
2023-04-19T21:31:04.428Z,13.53
2023-04-19T21:33:33.425Z,13.52
2023-04-19T21:36:01.698Z,13.55
2023-04-19T21:38:30.055Z,13.56
2023-04-19T21:41:04.878Z,13.51
2023-04-19T21:43:32.959Z,13.46
2023-04-19T21:46:04.246Z,13.45
2023-04-19T21:48:32.362Z,13.49
2023-04-19T21:51:01.193Z,13.57
2023-04-19T21:53:29.696Z,13.67
2023-04-19T21:55:58.188Z,13.73
2023-04-19T21:58:27.302Z,13.78
2023-04-19T22:00:56.736Z,13.83
2023-04-19T22:03:26.454Z,13.85
2023-04-19T22:05:55.545Z,13.86
2023-04-19T22:08:24.225Z,13.84
2023-04-19T22:10:53.032Z,13.82
2023-04-19T22:13:21.695Z,13.75
2023-04-19T22:15:50.168Z,13.65
2023-04-19T22:18:18.354Z,13.55
2023-04-19T22:20:49.490Z,13.45
2023-04-19T22:23:17.850Z,13.36
2023-04-19T22:25:46.045Z,13.25
2023-04-19T22:28:14.319Z,13.19
2023-04-19T22:30:42.520Z,13.20
2023-04-19T22:33:12.500Z,13.22
2023-04-19T22:35:41.140Z,13.26
2023-04-19T22:38:09.689Z,13.32
2023-04-19T22:40:38.154Z,13.40
2023-04-19T22:43:06.246Z,13.47
2023-04-19T22:45:35.421Z,13.51
2023-04-19T22:48:03.879Z,13.52
2023-04-19T22:50:34.201Z,13.53
2023-04-19T22:53:02.721Z,13.55
2023-04-19T22:55:31.568Z,13.53
2023-04-19T22:57:59.890Z,13.47
2023-04-19T23:00:28.895Z,13.38
2023-04-19T23:02:58.918Z,13.29
2023-04-19T23:05:28.955Z,13.19
2023-04-19T23:07:59.203Z,13.10
2023-04-19T23:10:28.910Z,13.05
2023-04-19T23:13:01.178Z,13.05
2023-04-19T23:15:30.912Z,12.97
2023-04-19T23:18:01.756Z,12.91
2023-04-19T23:20:31.548Z,12.89
2023-04-19T23:23:01.673Z,12.86
2023-04-19T23:25:30.756Z,12.80
2023-04-19T23:27:59.904Z,12.75
2023-04-19T23:30:31.515Z,12.74
2023-04-19T23:33:00.978Z,12.73
2023-04-19T23:35:30.916Z,12.75
2023-04-19T23:38:00.236Z,12.76
2023-04-19T23:40:29.640Z,12.77
2023-04-19T23:42:59.211Z,12.79
2023-04-19T23:45:27.727Z,12.80
2023-04-19T23:47:56.861Z,12.72
2023-04-19T23:50:25.838Z,12.64
2023-04-19T23:52:55.073Z,12.62
2023-04-19T23:55:23.979Z,12.66
2023-04-19T23:57:52.598Z,12.67
